sensor_id;sensor_type;location;lat;lon;timestamp;temperature;humidity
47521;DHT22;32291;52.010;4.446;2024-03-07T00:00:16;3.90;99.90
47521;DHT22;32291;52.010;4.446;2024-03-07T00:01:24;3.90;99.90
47521;DHT22;32291;52.010;4.446;2024-03-07T00:02:33;3.90;99.90
47521;DHT22;32291;52.010;4.446;2024-03-07T00:03:40;3.90;99.90
47521;DHT22;32291;52.010;4.446;2024-03-07T00:04:47;3.90;99.90
47521;DHT22;32291;52.010;4.446;2024-03-07T00:05:54;3.90;99.90
47521;DHT22;32291;52.010;4.446;2024-03-07T00:07:00;3.90;99.90
47521;DHT22;32291;52.010;4.446;2024-03-07T00:08:08;3.90;99.90
47521;DHT22;32291;52.010;4.446;2024-03-07T00:09:16;3.90;99.90
47521;DHT22;32291;52.010;4.446;2024-03-07T00:10:23;3.90;99.90
47521;DHT22;32291;52.010;4.446;2024-03-07T00:11:30;3.90;99.90
47521;DHT22;32291;52.010;4.446;2024-03-07T00:12:38;3.80;99.90
47521;DHT22;32291;52.010;4.446;2024-03-07T00:13:47;3.80;99.90
47521;DHT22;32291;52.010;4.446;2024-03-07T00:14:49;3.80;99.90
47521;DHT22;32291;52.010;4.446;2024-03-07T00:15:56;3.80;99.90
47521;DHT22;32291;52.010;4.446;2024-03-07T00:17:02;3.80;99.90
47521;DHT22;32291;52.010;4.446;2024-03-07T00:18:05;3.80;99.90
47521;DHT22;32291;52.010;4.446;2024-03-07T00:19:08;3.80;99.90
47521;DHT22;32291;52.010;4.446;2024-03-07T00:20:15;3.80;99.90
47521;DHT22;32291;52.010;4.446;2024-03-07T00:21:25;3.70;99.90
47521;DHT22;32291;52.010;4.446;2024-03-07T00:22:32;3.70;99.90
47521;DHT22;32291;52.010;4.446;2024-03-07T00:23:39;3.80;99.90
47521;DHT22;32291;52.010;4.446;2024-03-07T00:24:46;3.70;99.90
47521;DHT22;32291;52.010;4.446;2024-03-07T00:25:53;3.70;99.90
47521;DHT22;32291;52.010;4.446;2024-03-07T00:26:55;3.80;99.90
47521;DHT22;32291;52.010;4.446;2024-03-07T00:27:58;3.80;99.90
47521;DHT22;32291;52.010;4.446;2024-03-07T00:29:09;3.90;99.90
47521;DHT22;32291;52.010;4.446;2024-03-07T00:30:16;3.70;99.90
47521;DHT22;32291;52.010;4.446;2024-03-07T00:31:24;3.80;99.90
47521;DHT22;32291;52.010;4.446;2024-03-07T00:32:27;3.70;99.90
47521;DHT22;32291;52.010;4.446;2024-03-07T00:33:36;3.70;99.90
47521;DHT22;32291;52.010;4.446;2024-03-07T00:34:43;3.70;99.90
47521;DHT22;32291;52.010;4.446;2024-03-07T00:35:50;3.70;99.90
47521;DHT22;32291;52.010;4.446;2024-03-07T00:36:52;3.80;99.90
47521;DHT22;32291;52.010;4.446;2024-03-07T00:37:55;3.70;99.90
47521;DHT22;32291;52.010;4.446;2024-03-07T00:38:58;3.80;99.90
47521;DHT22;32291;52.010;4.446;2024-03-07T00:40:01;3.70;99.90
47521;DHT22;32291;52.010;4.446;2024-03-07T00:41:04;3.70;99.90
47521;DHT22;32291;52.010;4.446;2024-03-07T00:42:06;3.70;99.90
47521;DHT22;32291;52.010;4.446;2024-03-07T00:43:08;3.70;99.90
47521;DHT22;32291;52.010;4.446;2024-03-07T00:44:15;3.70;99.90
47521;DHT22;32291;52.010;4.446;2024-03-07T00:45:22;3.70;99.90
47521;DHT22;32291;52.010;4.446;2024-03-07T00:46:24;3.70;99.90
47521;DHT22;32291;52.010;4.446;2024-03-07T00:47:31;3.70;99.90
47521;DHT22;32291;52.010;4.446;2024-03-07T00:48:38;3.70;99.90
47521;DHT22;32291;52.010;4.446;2024-03-07T00:49:45;3.70;99.90
47521;DHT22;32291;52.010;4.446;2024-03-07T00:50:55;3.70;99.90
47521;DHT22;32291;52.010;4.446;2024-03-07T00:52:00;3.70;99.90
47521;DHT22;32291;52.010;4.446;2024-03-07T00:53:06;3.60;99.90
47521;DHT22;32291;52.010;4.446;2024-03-07T00:54:13;3.60;99.90
47521;DHT22;32291;52.010;4.446;2024-03-07T00:55:20;3.60;99.90
47521;DHT22;32291;52.010;4.446;2024-03-07T00:56:22;3.60;99.90
47521;DHT22;32291;52.010;4.446;2024-03-07T00:57:30;3.60;99.90
47521;DHT22;32291;52.010;4.446;2024-03-07T00:58:32;3.70;99.90
47521;DHT22;32291;52.010;4.446;2024-03-07T00:59:39;3.70;99.90
47521;DHT22;32291;52.010;4.446;2024-03-07T01:00:41;3.70;99.90
47521;DHT22;32291;52.010;4.446;2024-03-07T01:01:49;3.60;99.90
47521;DHT22;32291;52.010;4.446;2024-03-07T01:02:56;3.60;99.90
47521;DHT22;32291;52.010;4.446;2024-03-07T01:04:03;3.60;99.90
47521;DHT22;32291;52.010;4.446;2024-03-07T01:05:10;3.60;99.90
47521;DHT22;32291;52.010;4.446;2024-03-07T01:06:19;3.60;99.90
47521;DHT22;32291;52.010;4.446;2024-03-07T01:07:26;3.60;99.90
47521;DHT22;32291;52.010;4.446;2024-03-07T01:08:34;3.60;99.90
47521;DHT22;32291;52.010;4.446;2024-03-07T01:09:43;3.70;99.90
47521;DHT22;32291;52.010;4.446;2024-03-07T01:10:49;3.70;99.90
47521;DHT22;32291;52.010;4.446;2024-03-07T01:11:56;3.70;99.90
47521;DHT22;32291;52.010;4.446;2024-03-07T01:13:05;3.60;99.90
47521;DHT22;32291;52.010;4.446;2024-03-07T01:14:14;3.60;99.90
47521;DHT22;32291;52.010;4.446;2024-03-07T01:15:21;3.70;99.90
47521;DHT22;32291;52.010;4.446;2024-03-07T01:16:27;3.70;99.90
47521;DHT22;32291;52.010;4.446;2024-03-07T01:17:34;3.60;99.90
47521;DHT22;32291;52.010;4.446;2024-03-07T01:18:41;3.60;99.90
47521;DHT22;32291;52.010;4.446;2024-03-07T01:19:48;3.60;99.90
47521;DHT22;32291;52.010;4.446;2024-03-07T01:20:55;3.60;99.90
47521;DHT22;32291;52.010;4.446;2024-03-07T01:22:02;3.60;99.90
47521;DHT22;32291;52.010;4.446;2024-03-07T01:23:04;3.60;99.90
47521;DHT22;32291;52.010;4.446;2024-03-07T01:24:11;3.60;99.90
47521;DHT22;32291;52.010;4.446;2024-03-07T01:25:13;3.50;99.90
47521;DHT22;32291;52.010;4.446;2024-03-07T01:26:15;3.50;99.90
47521;DHT22;32291;52.010;4.446;2024-03-07T01:27:17;3.50;99.90
47521;DHT22;32291;52.010;4.446;2024-03-07T01:28:28;3.50;99.90
47521;DHT22;32291;52.010;4.446;2024-03-07T01:29:38;3.50;99.90
47521;DHT22;32291;52.010;4.446;2024-03-07T01:30:47;3.50;99.90
47521;DHT22;32291;52.010;4.446;2024-03-07T01:31:55;3.50;99.90
47521;DHT22;32291;52.010;4.446;2024-03-07T01:33:01;3.50;99.90
47521;DHT22;32291;52.010;4.446;2024-03-07T01:34:08;3.50;99.90
47521;DHT22;32291;52.010;4.446;2024-03-07T01:35:15;3.40;99.90
47521;DHT22;32291;52.010;4.446;2024-03-07T01:36:22;3.50;99.90
47521;DHT22;32291;52.010;4.446;2024-03-07T01:37:28;3.40;99.90
47521;DHT22;32291;52.010;4.446;2024-03-07T01:38:36;3.40;99.90
47521;DHT22;32291;52.010;4.446;2024-03-07T01:39:43;3.40;99.90
47521;DHT22;32291;52.010;4.446;2024-03-07T01:40:49;3.40;99.90
47521;DHT22;32291;52.010;4.446;2024-03-07T01:41:56;3.40;99.90
47521;DHT22;32291;52.010;4.446;2024-03-07T01:43:03;3.40;99.90
47521;DHT22;32291;52.010;4.446;2024-03-07T01:44:10;3.30;99.90
47521;DHT22;32291;52.010;4.446;2024-03-07T01:45:17;3.30;99.90
47521;DHT22;32291;52.010;4.446;2024-03-07T01:46:28;3.30;99.90
47521;DHT22;32291;52.010;4.446;2024-03-07T01:47:36;3.30;99.90
47521;DHT22;32291;52.010;4.446;2024-03-07T01:48:38;3.40;99.90
47521;DHT22;32291;52.010;4.446;2024-03-07T01:49:47;3.30;99.90
47521;DHT22;32291;52.010;4.446;2024-03-07T01:50:55;3.30;99.90
47521;DHT22;32291;52.010;4.446;2024-03-07T01:52:03;3.30;99.90
47521;DHT22;32291;52.010;4.446;2024-03-07T01:53:14;3.30;99.90
47521;DHT22;32291;52.010;4.446;2024-03-07T01:54:21;3.30;99.90
47521;DHT22;32291;52.010;4.446;2024-03-07T01:55:28;3.30;99.90
47521;DHT22;32291;52.010;4.446;2024-03-07T01:56:36;3.30;99.90
47521;DHT22;32291;52.010;4.446;2024-03-07T01:57:43;3.30;99.90
47521;DHT22;32291;52.010;4.446;2024-03-07T01:58:47;3.20;99.90
47521;DHT22;32291;52.010;4.446;2024-03-07T01:59:56;3.20;99.90
47521;DHT22;32291;52.010;4.446;2024-03-07T02:01:03;3.20;99.90
47521;DHT22;32291;52.010;4.446;2024-03-07T02:02:05;3.20;99.90
47521;DHT22;32291;52.010;4.446;2024-03-07T02:03:14;3.20;99.90
47521;DHT22;32291;52.010;4.446;2024-03-07T02:04:20;3.10;99.90
47521;DHT22;32291;52.010;4.446;2024-03-07T02:05:27;3.20;99.90
47521;DHT22;32291;52.010;4.446;2024-03-07T02:06:35;3.20;99.90
47521;DHT22;32291;52.010;4.446;2024-03-07T02:07:43;3.10;99.90
47521;DHT22;32291;52.010;4.446;2024-03-07T02:08:45;3.10;99.90
47521;DHT22;32291;52.010;4.446;2024-03-07T02:10:02;3.10;99.90
47521;DHT22;32291;52.010;4.446;2024-03-07T02:11:10;3.10;99.90
47521;DHT22;32291;52.010;4.446;2024-03-07T02:12:16;3.10;99.90
47521;DHT22;32291;52.010;4.446;2024-03-07T02:13:19;3.10;99.90
47521;DHT22;32291;52.010;4.446;2024-03-07T02:14:25;3.20;99.90
47521;DHT22;32291;52.010;4.446;2024-03-07T02:15:33;3.20;99.90
47521;DHT22;32291;52.010;4.446;2024-03-07T02:16:35;3.20;99.90
47521;DHT22;32291;52.010;4.446;2024-03-07T02:17:42;3.20;99.90
47521;DHT22;32291;52.010;4.446;2024-03-07T02:18:50;3.20;99.90
47521;DHT22;32291;52.010;4.446;2024-03-07T02:19:57;3.20;99.90
47521;DHT22;32291;52.010;4.446;2024-03-07T02:21:08;3.20;99.90
47521;DHT22;32291;52.010;4.446;2024-03-07T02:22:18;3.20;99.90
47521;DHT22;32291;52.010;4.446;2024-03-07T02:23:25;3.20;99.90
47521;DHT22;32291;52.010;4.446;2024-03-07T02:24:34;3.20;99.90
47521;DHT22;32291;52.010;4.446;2024-03-07T02:25:40;3.30;99.90
47521;DHT22;32291;52.010;4.446;2024-03-07T02:26:47;3.20;99.90
47521;DHT22;32291;52.010;4.446;2024-03-07T02:27:55;3.30;99.90
47521;DHT22;32291;52.010;4.446;2024-03-07T02:28:57;3.30;99.90
47521;DHT22;32291;52.010;4.446;2024-03-07T02:29:59;3.20;99.90
47521;DHT22;32291;52.010;4.446;2024-03-07T02:31:08;3.30;99.90
47521;DHT22;32291;52.010;4.446;2024-03-07T02:32:15;3.30;99.90
47521;DHT22;32291;52.010;4.446;2024-03-07T02:33:22;3.30;99.90
47521;DHT22;32291;52.010;4.446;2024-03-07T02:34:30;3.30;99.90
47521;DHT22;32291;52.010;4.446;2024-03-07T02:35:36;3.30;99.90
47521;DHT22;32291;52.010;4.446;2024-03-07T02:36:44;3.30;99.90
47521;DHT22;32291;52.010;4.446;2024-03-07T02:37:46;3.30;99.90
47521;DHT22;32291;52.010;4.446;2024-03-07T02:38:53;3.30;99.90
47521;DHT22;32291;52.010;4.446;2024-03-07T02:39:56;3.30;99.90
47521;DHT22;32291;52.010;4.446;2024-03-07T02:41:03;3.30;99.90
47521;DHT22;32291;52.010;4.446;2024-03-07T02:42:05;3.20;99.90
47521;DHT22;32291;52.010;4.446;2024-03-07T02:43:08;3.20;99.90
47521;DHT22;32291;52.010;4.446;2024-03-07T02:44:15;3.20;99.90
47521;DHT22;32291;52.010;4.446;2024-03-07T02:45:22;3.20;99.90
47521;DHT22;32291;52.010;4.446;2024-03-07T02:46:30;3.10;99.90
47521;DHT22;32291;52.010;4.446;2024-03-07T02:47:38;3.10;99.90
47521;DHT22;32291;52.010;4.446;2024-03-07T02:48:45;3.10;99.90
47521;DHT22;32291;52.010;4.446;2024-03-07T02:49:47;3.10;99.90
47521;DHT22;32291;52.010;4.446;2024-03-07T02:50:54;3.10;99.90
47521;DHT22;32291;52.010;4.446;2024-03-07T02:51:56;3.10;99.90
47521;DHT22;32291;52.010;4.446;2024-03-07T02:52:58;3.10;99.90
47521;DHT22;32291;52.010;4.446;2024-03-07T02:54:01;3.00;99.90
47521;DHT22;32291;52.010;4.446;2024-03-07T02:55:11;3.00;99.90
47521;DHT22;32291;52.010;4.446;2024-03-07T02:56:19;3.00;99.90
47521;DHT22;32291;52.010;4.446;2024-03-07T02:57:26;3.00;99.90
47521;DHT22;32291;52.010;4.446;2024-03-07T02:58:33;3.00;99.90
47521;DHT22;32291;52.010;4.446;2024-03-07T02:59:40;3.10;99.90
47521;DHT22;32291;52.010;4.446;2024-03-07T03:00:42;3.00;99.90
47521;DHT22;32291;52.010;4.446;2024-03-07T03:01:49;3.00;99.90
47521;DHT22;32291;52.010;4.446;2024-03-07T03:02:52;3.10;99.90
47521;DHT22;32291;52.010;4.446;2024-03-07T03:03:55;3.10;99.90
47521;DHT22;32291;52.010;4.446;2024-03-07T03:05:02;3.10;99.90
47521;DHT22;32291;52.010;4.446;2024-03-07T03:06:09;3.10;99.90
47521;DHT22;32291;52.010;4.446;2024-03-07T03:07:16;3.20;99.90
47521;DHT22;32291;52.010;4.446;2024-03-07T03:08:24;3.10;99.90
47521;DHT22;32291;52.010;4.446;2024-03-07T03:09:26;3.20;99.90
47521;DHT22;32291;52.010;4.446;2024-03-07T03:10:34;3.20;99.90
47521;DHT22;32291;52.010;4.446;2024-03-07T03:11:37;3.10;99.90
47521;DHT22;32291;52.010;4.446;2024-03-07T03:12:50;3.10;99.90
47521;DHT22;32291;52.010;4.446;2024-03-07T03:14:01;3.30;99.90
47521;DHT22;32291;52.010;4.446;2024-03-07T03:15:06;3.10;99.90
47521;DHT22;32291;52.010;4.446;2024-03-07T03:16:13;3.10;99.90
47521;DHT22;32291;52.010;4.446;2024-03-07T03:17:20;3.10;99.90
47521;DHT22;32291;52.010;4.446;2024-03-07T03:18:27;3.10;99.90
47521;DHT22;32291;52.010;4.446;2024-03-07T03:19:34;3.10;99.90
47521;DHT22;32291;52.010;4.446;2024-03-07T03:20:45;3.10;99.90
47521;DHT22;32291;52.010;4.446;2024-03-07T03:21:49;3.10;99.90
47521;DHT22;32291;52.010;4.446;2024-03-07T03:22:56;3.20;99.90
47521;DHT22;32291;52.010;4.446;2024-03-07T03:24:03;3.10;99.90
47521;DHT22;32291;52.010;4.446;2024-03-07T03:25:10;3.10;99.90
47521;DHT22;32291;52.010;4.446;2024-03-07T03:26:17;3.10;99.90
47521;DHT22;32291;52.010;4.446;2024-03-07T03:27:24;3.10;99.90
47521;DHT22;32291;52.010;4.446;2024-03-07T03:28:31;3.10;99.90
47521;DHT22;32291;52.010;4.446;2024-03-07T03:29:38;3.10;99.90
47521;DHT22;32291;52.010;4.446;2024-03-07T03:30:41;3.10;99.90
47521;DHT22;32291;52.010;4.446;2024-03-07T03:31:47;3.10;99.90
47521;DHT22;32291;52.010;4.446;2024-03-07T03:32:55;3.20;99.90
47521;DHT22;32291;52.010;4.446;2024-03-07T03:34:01;3.20;99.90
47521;DHT22;32291;52.010;4.446;2024-03-07T03:35:08;3.20;99.90
47521;DHT22;32291;52.010;4.446;2024-03-07T03:36:19;3.20;99.90
47521;DHT22;32291;52.010;4.446;2024-03-07T03:37:26;3.30;99.90
47521;DHT22;32291;52.010;4.446;2024-03-07T03:38:33;3.30;99.90
47521;DHT22;32291;52.010;4.446;2024-03-07T03:39:35;3.30;99.90
47521;DHT22;32291;52.010;4.446;2024-03-07T03:40:41;3.30;99.90
47521;DHT22;32291;52.010;4.446;2024-03-07T03:41:48;3.30;99.90
47521;DHT22;32291;52.010;4.446;2024-03-07T03:42:55;3.30;99.90
47521;DHT22;32291;52.010;4.446;2024-03-07T03:44:02;3.30;99.90
47521;DHT22;32291;52.010;4.446;2024-03-07T03:45:06;3.40;99.90
47521;DHT22;32291;52.010;4.446;2024-03-07T03:46:10;3.30;99.90
47521;DHT22;32291;52.010;4.446;2024-03-07T03:47:18;3.30;99.90
47521;DHT22;32291;52.010;4.446;2024-03-07T03:48:25;3.30;99.90
47521;DHT22;32291;52.010;4.446;2024-03-07T03:49:33;3.20;99.90
47521;DHT22;32291;52.010;4.446;2024-03-07T03:50:40;3.20;99.90
47521;DHT22;32291;52.010;4.446;2024-03-07T03:51:47;3.20;99.90
47521;DHT22;32291;52.010;4.446;2024-03-07T03:52:54;3.20;99.90
47521;DHT22;32291;52.010;4.446;2024-03-07T03:53:56;3.30;99.90
47521;DHT22;32291;52.010;4.446;2024-03-07T03:55:04;3.20;99.90
47521;DHT22;32291;52.010;4.446;2024-03-07T03:56:10;3.20;99.90
47521;DHT22;32291;52.010;4.446;2024-03-07T03:57:19;3.20;99.90
47521;DHT22;32291;52.010;4.446;2024-03-07T03:58:26;3.20;99.90
47521;DHT22;32291;52.010;4.446;2024-03-07T03:59:34;3.20;99.90
47521;DHT22;32291;52.010;4.446;2024-03-07T04:00:41;3.30;99.90
47521;DHT22;32291;52.010;4.446;2024-03-07T04:01:48;3.20;99.90
47521;DHT22;32291;52.010;4.446;2024-03-07T04:02:54;3.20;99.90
47521;DHT22;32291;52.010;4.446;2024-03-07T04:04:02;3.20;99.90
47521;DHT22;32291;52.010;4.446;2024-03-07T04:05:12;3.20;99.90
47521;DHT22;32291;52.010;4.446;2024-03-07T04:06:19;3.20;99.90
47521;DHT22;32291;52.010;4.446;2024-03-07T04:07:27;3.20;99.90
47521;DHT22;32291;52.010;4.446;2024-03-07T04:08:34;3.10;99.90
47521;DHT22;32291;52.010;4.446;2024-03-07T04:09:44;3.10;99.90
47521;DHT22;32291;52.010;4.446;2024-03-07T04:10:52;3.10;99.90
47521;DHT22;32291;52.010;4.446;2024-03-07T04:11:58;3.10;99.90
47521;DHT22;32291;52.010;4.446;2024-03-07T04:13:05;3.10;99.90
47521;DHT22;32291;52.010;4.446;2024-03-07T04:14:12;3.10;99.90
47521;DHT22;32291;52.010;4.446;2024-03-07T04:15:19;3.10;99.90
47521;DHT22;32291;52.010;4.446;2024-03-07T04:16:26;3.00;99.90
47521;DHT22;32291;52.010;4.446;2024-03-07T04:17:36;3.00;99.90
47521;DHT22;32291;52.010;4.446;2024-03-07T04:18:43;3.00;99.90
47521;DHT22;32291;52.010;4.446;2024-03-07T04:19:50;3.00;99.90
47521;DHT22;32291;52.010;4.446;2024-03-07T04:20:57;3.00;99.90
47521;DHT22;32291;52.010;4.446;2024-03-07T04:22:00;3.10;99.90
47521;DHT22;32291;52.010;4.446;2024-03-07T04:23:04;3.10;99.90
47521;DHT22;32291;52.010;4.446;2024-03-07T04:24:14;3.10;99.90
47521;DHT22;32291;52.010;4.446;2024-03-07T04:25:21;3.20;99.90
47521;DHT22;32291;52.010;4.446;2024-03-07T04:26:27;3.20;99.90
47521;DHT22;32291;52.010;4.446;2024-03-07T04:27:34;3.20;99.90
47521;DHT22;32291;52.010;4.446;2024-03-07T04:28:47;3.30;99.90
47521;DHT22;32291;52.010;4.446;2024-03-07T04:29:54;3.30;99.90
47521;DHT22;32291;52.010;4.446;2024-03-07T04:30:56;3.30;99.90
47521;DHT22;32291;52.010;4.446;2024-03-07T04:32:04;3.40;99.90
47521;DHT22;32291;52.010;4.446;2024-03-07T04:33:06;3.40;99.90
47521;DHT22;32291;52.010;4.446;2024-03-07T04:34:13;3.40;99.90
47521;DHT22;32291;52.010;4.446;2024-03-07T04:35:20;3.50;99.90
47521;DHT22;32291;52.010;4.446;2024-03-07T04:36:28;3.50;99.90
47521;DHT22;32291;52.010;4.446;2024-03-07T04:37:35;3.50;99.90
47521;DHT22;32291;52.010;4.446;2024-03-07T04:38:38;3.50;99.90
47521;DHT22;32291;52.010;4.446;2024-03-07T04:39:48;3.50;99.90
47521;DHT22;32291;52.010;4.446;2024-03-07T04:40:54;3.50;99.90
47521;DHT22;32291;52.010;4.446;2024-03-07T04:42:03;3.50;99.90
47521;DHT22;32291;52.010;4.446;2024-03-07T04:43:10;3.50;99.90
47521;DHT22;32291;52.010;4.446;2024-03-07T04:44:17;3.50;99.90
47521;DHT22;32291;52.010;4.446;2024-03-07T04:45:25;3.50;99.90
47521;DHT22;32291;52.010;4.446;2024-03-07T04:46:30;3.50;99.90
47521;DHT22;32291;52.010;4.446;2024-03-07T04:47:39;3.50;99.90
47521;DHT22;32291;52.010;4.446;2024-03-07T04:48:48;3.40;99.90
47521;DHT22;32291;52.010;4.446;2024-03-07T04:49:55;3.40;99.90
47521;DHT22;32291;52.010;4.446;2024-03-07T04:51:04;3.40;99.90
47521;DHT22;32291;52.010;4.446;2024-03-07T04:52:06;3.30;99.90
47521;DHT22;32291;52.010;4.446;2024-03-07T04:53:14;3.30;99.90
47521;DHT22;32291;52.010;4.446;2024-03-07T04:54:22;3.30;99.90
47521;DHT22;32291;52.010;4.446;2024-03-07T04:55:29;3.30;99.90
47521;DHT22;32291;52.010;4.446;2024-03-07T04:56:38;3.20;99.90
47521;DHT22;32291;52.010;4.446;2024-03-07T04:57:45;3.20;99.90
47521;DHT22;32291;52.010;4.446;2024-03-07T04:58:48;3.20;99.90
47521;DHT22;32291;52.010;4.446;2024-03-07T04:59:51;3.20;99.90
47521;DHT22;32291;52.010;4.446;2024-03-07T05:00:58;3.10;99.90
47521;DHT22;32291;52.010;4.446;2024-03-07T05:02:05;3.10;99.90
47521;DHT22;32291;52.010;4.446;2024-03-07T05:03:15;3.10;99.90
47521;DHT22;32291;52.010;4.446;2024-03-07T05:04:21;3.10;99.90
47521;DHT22;32291;52.010;4.446;2024-03-07T05:05:30;3.10;99.90
47521;DHT22;32291;52.010;4.446;2024-03-07T05:06:37;3.00;99.90
47521;DHT22;32291;52.010;4.446;2024-03-07T05:07:46;3.00;99.90
47521;DHT22;32291;52.010;4.446;2024-03-07T05:08:53;3.00;99.90
47521;DHT22;32291;52.010;4.446;2024-03-07T05:09:55;3.00;99.90
47521;DHT22;32291;52.010;4.446;2024-03-07T05:10:57;3.00;99.90
47521;DHT22;32291;52.010;4.446;2024-03-07T05:12:04;3.00;99.90
47521;DHT22;32291;52.010;4.446;2024-03-07T05:13:11;3.00;99.90
47521;DHT22;32291;52.010;4.446;2024-03-07T05:14:18;3.00;99.90
47521;DHT22;32291;52.010;4.446;2024-03-07T05:15:25;3.00;99.90
47521;DHT22;32291;52.010;4.446;2024-03-07T05:16:28;3.00;99.90
47521;DHT22;32291;52.010;4.446;2024-03-07T05:17:32;3.00;99.90
47521;DHT22;32291;52.010;4.446;2024-03-07T05:18:41;3.00;99.90
47521;DHT22;32291;52.010;4.446;2024-03-07T05:19:49;3.00;99.90
47521;DHT22;32291;52.010;4.446;2024-03-07T05:20:51;3.00;99.90
47521;DHT22;32291;52.010;4.446;2024-03-07T05:22:01;3.00;99.90
47521;DHT22;32291;52.010;4.446;2024-03-07T05:23:11;3.10;99.90
47521;DHT22;32291;52.010;4.446;2024-03-07T05:24:18;3.10;99.90
47521;DHT22;32291;52.010;4.446;2024-03-07T05:25:26;3.10;99.90
47521;DHT22;32291;52.010;4.446;2024-03-07T05:26:33;3.10;99.90
47521;DHT22;32291;52.010;4.446;2024-03-07T05:27:46;3.10;99.90
47521;DHT22;32291;52.010;4.446;2024-03-07T05:28:56;3.10;99.90
47521;DHT22;32291;52.010;4.446;2024-03-07T05:30:03;3.10;99.90
47521;DHT22;32291;52.010;4.446;2024-03-07T05:31:16;3.10;99.90
47521;DHT22;32291;52.010;4.446;2024-03-07T05:32:25;3.10;99.90
47521;DHT22;32291;52.010;4.446;2024-03-07T05:33:33;3.10;99.90
47521;DHT22;32291;52.010;4.446;2024-03-07T05:34:35;3.10;99.90
47521;DHT22;32291;52.010;4.446;2024-03-07T05:35:47;3.10;99.90
47521;DHT22;32291;52.010;4.446;2024-03-07T05:36:54;3.10;99.90
47521;DHT22;32291;52.010;4.446;2024-03-07T05:38:00;3.20;99.90
47521;DHT22;32291;52.010;4.446;2024-03-07T05:39:11;3.20;99.90
47521;DHT22;32291;52.010;4.446;2024-03-07T05:40:22;3.20;99.90
47521;DHT22;32291;52.010;4.446;2024-03-07T05:41:29;3.20;99.90
47521;DHT22;32291;52.010;4.446;2024-03-07T05:42:31;3.20;99.90
47521;DHT22;32291;52.010;4.446;2024-03-07T05:43:41;3.20;99.90
47521;DHT22;32291;52.010;4.446;2024-03-07T05:44:47;3.20;99.90
47521;DHT22;32291;52.010;4.446;2024-03-07T05:45:50;3.20;99.90
47521;DHT22;32291;52.010;4.446;2024-03-07T05:46:57;3.20;99.90
47521;DHT22;32291;52.010;4.446;2024-03-07T05:48:14;3.20;99.90
47521;DHT22;32291;52.010;4.446;2024-03-07T05:49:23;3.20;99.90
47521;DHT22;32291;52.010;4.446;2024-03-07T05:50:25;3.20;99.90
47521;DHT22;32291;52.010;4.446;2024-03-07T05:51:32;3.20;99.90
47521;DHT22;32291;52.010;4.446;2024-03-07T05:52:34;3.20;99.90
47521;DHT22;32291;52.010;4.446;2024-03-07T05:53:41;3.20;99.90
47521;DHT22;32291;52.010;4.446;2024-03-07T05:54:50;3.20;99.90
47521;DHT22;32291;52.010;4.446;2024-03-07T05:55:57;3.10;99.90
47521;DHT22;32291;52.010;4.446;2024-03-07T05:57:04;3.20;99.90
47521;DHT22;32291;52.010;4.446;2024-03-07T05:58:11;3.20;99.90
47521;DHT22;32291;52.010;4.446;2024-03-07T05:59:19;3.20;99.90
47521;DHT22;32291;52.010;4.446;2024-03-07T06:00:25;3.20;99.90
47521;DHT22;32291;52.010;4.446;2024-03-07T06:01:34;3.20;99.90
47521;DHT22;32291;52.010;4.446;2024-03-07T06:02:41;3.20;99.90
47521;DHT22;32291;52.010;4.446;2024-03-07T06:03:48;3.20;99.90
47521;DHT22;32291;52.010;4.446;2024-03-07T06:04:55;3.20;99.90
47521;DHT22;32291;52.010;4.446;2024-03-07T06:06:01;3.20;99.90
47521;DHT22;32291;52.010;4.446;2024-03-07T06:07:16;3.20;99.90
47521;DHT22;32291;52.010;4.446;2024-03-07T06:08:28;3.20;99.90
47521;DHT22;32291;52.010;4.446;2024-03-07T06:09:45;3.20;99.90
47521;DHT22;32291;52.010;4.446;2024-03-07T06:10:53;3.10;99.90
47521;DHT22;32291;52.010;4.446;2024-03-07T06:12:14;3.20;99.90
47521;DHT22;32291;52.010;4.446;2024-03-07T06:13:30;3.20;99.90
47521;DHT22;32291;52.010;4.446;2024-03-07T06:14:47;3.20;99.90
47521;DHT22;32291;52.010;4.446;2024-03-07T06:15:52;3.20;99.90
47521;DHT22;32291;52.010;4.446;2024-03-07T06:16:59;3.10;99.90
47521;DHT22;32291;52.010;4.446;2024-03-07T06:18:09;3.10;99.90
47521;DHT22;32291;52.010;4.446;2024-03-07T06:19:17;3.10;99.90
47521;DHT22;32291;52.010;4.446;2024-03-07T06:20:19;3.10;99.90
47521;DHT22;32291;52.010;4.446;2024-03-07T06:21:24;3.10;99.90
47521;DHT22;32291;52.010;4.446;2024-03-07T06:22:32;3.10;99.90
47521;DHT22;32291;52.010;4.446;2024-03-07T06:23:34;3.10;99.90
47521;DHT22;32291;52.010;4.446;2024-03-07T06:24:41;3.10;99.90
47521;DHT22;32291;52.010;4.446;2024-03-07T06:25:44;3.10;99.90
47521;DHT22;32291;52.010;4.446;2024-03-07T06:26:56;3.10;99.90
47521;DHT22;32291;52.010;4.446;2024-03-07T06:28:06;3.10;99.90
47521;DHT22;32291;52.010;4.446;2024-03-07T06:29:17;3.10;99.90
47521;DHT22;32291;52.010;4.446;2024-03-07T06:30:25;3.10;99.90
47521;DHT22;32291;52.010;4.446;2024-03-07T06:31:32;3.10;99.90
47521;DHT22;32291;52.010;4.446;2024-03-07T06:32:40;3.10;99.90
47521;DHT22;32291;52.010;4.446;2024-03-07T06:33:47;3.10;99.90
47521;DHT22;32291;52.010;4.446;2024-03-07T06:34:54;3.20;99.90
47521;DHT22;32291;52.010;4.446;2024-03-07T06:36:01;3.20;99.90
47521;DHT22;32291;52.010;4.446;2024-03-07T06:37:08;3.20;99.90
47521;DHT22;32291;52.010;4.446;2024-03-07T06:38:15;3.20;99.90
47521;DHT22;32291;52.010;4.446;2024-03-07T06:39:22;3.20;99.90
47521;DHT22;32291;52.010;4.446;2024-03-07T06:40:24;3.20;99.90
47521;DHT22;32291;52.010;4.446;2024-03-07T06:41:36;3.30;99.90
47521;DHT22;32291;52.010;4.446;2024-03-07T06:42:43;3.30;99.90
47521;DHT22;32291;52.010;4.446;2024-03-07T06:43:51;3.40;99.90
47521;DHT22;32291;52.010;4.446;2024-03-07T06:44:59;3.40;99.90
47521;DHT22;32291;52.010;4.446;2024-03-07T06:46:09;3.40;99.90
47521;DHT22;32291;52.010;4.446;2024-03-07T06:47:17;3.40;99.90
47521;DHT22;32291;52.010;4.446;2024-03-07T06:48:20;3.50;99.90
47521;DHT22;32291;52.010;4.446;2024-03-07T06:49:27;3.50;99.90
47521;DHT22;32291;52.010;4.446;2024-03-07T06:50:35;3.50;99.90
47521;DHT22;32291;52.010;4.446;2024-03-07T06:51:38;3.50;99.90
47521;DHT22;32291;52.010;4.446;2024-03-07T06:52:46;3.50;99.90
47521;DHT22;32291;52.010;4.446;2024-03-07T06:53:53;3.50;99.90
47521;DHT22;32291;52.010;4.446;2024-03-07T06:55:01;3.50;99.90
47521;DHT22;32291;52.010;4.446;2024-03-07T06:56:05;3.60;99.90
47521;DHT22;32291;52.010;4.446;2024-03-07T06:57:17;3.60;99.90
47521;DHT22;32291;52.010;4.446;2024-03-07T06:58:20;3.70;99.90
47521;DHT22;32291;52.010;4.446;2024-03-07T06:59:27;3.60;99.90
47521;DHT22;32291;52.010;4.446;2024-03-07T07:00:34;3.70;99.90
47521;DHT22;32291;52.010;4.446;2024-03-07T07:01:46;3.70;99.90
47521;DHT22;32291;52.010;4.446;2024-03-07T07:02:53;3.80;99.90
47521;DHT22;32291;52.010;4.446;2024-03-07T07:04:01;3.70;99.90
47521;DHT22;32291;52.010;4.446;2024-03-07T07:05:10;3.80;99.90
47521;DHT22;32291;52.010;4.446;2024-03-07T07:06:17;3.80;99.90
47521;DHT22;32291;52.010;4.446;2024-03-07T07:07:25;3.80;99.90
47521;DHT22;32291;52.010;4.446;2024-03-07T07:08:38;3.80;99.90